createdAt,value
2022-11-05T00:00:07.325Z,87.5
2022-11-05T00:01:10.498Z,87.3
2022-11-05T00:02:14.252Z,87.2
2022-11-05T00:03:17.946Z,87.1
2022-11-05T00:04:22.213Z,87
2022-11-05T00:05:33.861Z,86.8
2022-11-05T00:06:36.668Z,86.8
2022-11-05T00:07:41.083Z,86.8
2022-11-05T00:08:44.165Z,86.7
2022-11-05T00:09:48.021Z,86.7
2022-11-05T00:11:06.168Z,86.7
2022-11-05T00:12:09.158Z,86.9
2022-11-05T00:13:14.146Z,86.8
2022-11-05T00:14:17.137Z,86.7
2022-11-05T00:15:20.475Z,86.7
2022-11-05T00:16:23.586Z,86.8
2022-11-05T00:17:26.623Z,86.8
2022-11-05T00:18:29.786Z,86.9
2022-11-05T00:19:32.979Z,87
2022-11-05T00:20:37.003Z,87
2022-11-05T00:21:40.436Z,87
2022-11-05T00:22:44.134Z,87
2022-11-05T00:23:47.292Z,86.9
2022-11-05T00:24:50.524Z,86.8
2022-11-05T00:25:53.238Z,86.8
2022-11-05T00:26:55.948Z,86.7
2022-11-05T00:27:59.736Z,86.6
2022-11-05T00:29:01.975Z,86.6
2022-11-05T00:30:04.925Z,86.4
2022-11-05T00:31:08.070Z,86.4
2022-11-05T00:32:10.601Z,86.3
2022-11-05T00:33:13.937Z,86.3
2022-11-05T00:34:16.379Z,86.2
2022-11-05T00:35:19.184Z,86.2
2022-11-05T00:36:22.649Z,86.2
2022-11-05T00:37:25.343Z,86.2
2022-11-05T00:38:27.780Z,86.1
2022-11-05T00:39:30.612Z,86.1
2022-11-05T00:40:34.422Z,86.1
2022-11-05T00:41:37.811Z,86.1
2022-11-05T00:42:40.693Z,86.2
2022-11-05T00:43:44.424Z,86.5
2022-11-05T00:44:47.424Z,86.5
2022-11-05T00:45:50.886Z,86.5
2022-11-05T00:47:00.458Z,86.5
2022-11-05T00:48:03.558Z,86.5
2022-11-05T00:49:07.327Z,86.4
2022-11-05T00:50:09.764Z,86.3
2022-11-05T00:51:13.401Z,86.4
2022-11-05T00:52:17.135Z,86.4
2022-11-05T00:53:19.574Z,86.4
2022-11-05T00:54:23.323Z,86.4
2022-11-05T00:55:26.221Z,86.5
2022-11-05T00:56:29.614Z,86.5
2022-11-05T00:57:32.225Z,86.5
2022-11-05T00:58:35.100Z,86.5
2022-11-05T00:59:38.112Z,86.5
2022-11-05T01:00:40.554Z,86.5
2022-11-05T01:01:44.280Z,86.6
2022-11-05T01:02:48.774Z,86.6
2022-11-05T01:03:52.956Z,86.6
2022-11-05T01:04:56.218Z,86.6
2022-11-05T01:05:59.869Z,86.7
2022-11-05T01:07:02.526Z,86.7
2022-11-05T01:08:06.261Z,86.7
2022-11-05T01:09:09.408Z,86.7
2022-11-05T01:10:12.210Z,86.8
2022-11-05T01:11:15.050Z,87
2022-11-05T01:12:18.309Z,87.1
2022-11-05T01:13:22.363Z,87.1
2022-11-05T01:14:25.238Z,87.1
2022-11-05T01:15:28.500Z,87.1
2022-11-05T01:16:31.060Z,87
2022-11-05T01:17:34.138Z,86.9
2022-11-05T01:18:36.969Z,86.9
2022-11-05T01:19:39.972Z,86.8
2022-11-05T01:20:43.272Z,86.9
2022-11-05T01:21:45.710Z,86.9
2022-11-05T01:22:49.234Z,86.9
2022-11-05T01:23:52.690Z,86.9
2022-11-05T01:24:55.504Z,86.9
2022-11-05T01:25:58.865Z,86.9
2022-11-05T01:27:01.677Z,86.8
2022-11-05T01:28:05.231Z,86.8
2022-11-05T01:29:08.634Z,87
2022-11-05T01:30:11.873Z,87.1
2022-11-05T01:31:15.048Z,87.1
2022-11-05T01:32:18.118Z,87.3
2022-11-05T01:33:20.640Z,87.4
2022-11-05T01:34:23.104Z,87.4
2022-11-05T01:35:25.291Z,87.4
2022-11-05T01:36:28.405Z,87.3
2022-11-05T01:37:31.221Z,87.3
2022-11-05T01:38:33.975Z,87.3
2022-11-05T01:39:36.800Z,87.3
2022-11-05T01:40:40.518Z,87.3
2022-11-05T01:41:42.768Z,87.3
2022-11-05T01:42:46.038Z,87.4
2022-11-05T01:43:49.795Z,87.4
2022-11-05T01:44:52.910Z,87.4
2022-11-05T01:45:56.531Z,87.4
2022-11-05T01:46:59.987Z,87.3
2022-11-05T01:48:03.732Z,87.3
2022-11-05T01:49:06.176Z,87.2
2022-11-05T01:50:09.823Z,87.1
2022-11-05T01:51:12.932Z,87.2
2022-11-05T01:52:16.774Z,87.3
2022-11-05T01:53:19.388Z,87.3
2022-11-05T01:54:22.477Z,87.3
2022-11-05T01:55:26.019Z,87.3
2022-11-05T01:56:29.442Z,87.3
2022-11-05T01:57:32.620Z,87.4
2022-11-05T01:58:35.510Z,87.4
2022-11-05T01:59:39.224Z,87.5
2022-11-05T02:00:41.955Z,87.4
2022-11-05T02:01:45.387Z,87.3
2022-11-05T02:02:49.792Z,87.2
2022-11-05T02:03:53.194Z,87
2022-11-05T02:04:56.331Z,87
2022-11-05T02:05:59.565Z,86.9
2022-11-05T02:07:02.586Z,87
2022-11-05T02:08:05.978Z,87
2022-11-05T02:09:08.782Z,87
2022-11-05T02:10:12.063Z,86.9
2022-11-05T02:11:15.324Z,87
2022-11-05T02:12:18.307Z,87
2022-11-05T02:13:21.654Z,87
2022-11-05T02:14:24.462Z,87
2022-11-05T02:15:28.191Z,87
2022-11-05T02:16:30.700Z,87
2022-11-05T02:17:33.786Z,87
2022-11-05T02:18:37.273Z,87.1
2022-11-05T02:19:40.627Z,87.1
2022-11-05T02:20:52.119Z,87.2
2022-11-05T02:21:55.371Z,87.2
2022-11-05T02:22:58.560Z,87.2
2022-11-05T02:24:01.945Z,87.2
2022-11-05T02:25:04.668Z,87.2
2022-11-05T02:26:07.396Z,87.3
2022-11-05T02:27:10.876Z,87.2
2022-11-05T02:28:14.522Z,87.3
2022-11-05T02:29:17.695Z,87.4
2022-11-05T02:30:20.985Z,87.3
2022-11-05T02:31:24.647Z,87.3
2022-11-05T02:32:27.448Z,87.4
2022-11-05T02:33:30.267Z,87.5
2022-11-05T02:34:34.041Z,87.6
2022-11-05T02:35:36.831Z,87.7
2022-11-05T02:36:39.363Z,87.8
2022-11-05T02:37:42.842Z,88
2022-11-05T02:38:46.122Z,88.1
2022-11-05T02:39:49.476Z,88.1
2022-11-05T02:40:52.652Z,88.2
2022-11-05T02:41:57.258Z,88.3
2022-11-05T02:43:08.159Z,88.2
2022-11-05T02:44:12.096Z,88.2
2022-11-05T02:45:15.472Z,88.5
2022-11-05T02:46:19.007Z,88.5
2022-11-05T02:47:22.180Z,88.6
2022-11-05T02:48:24.973Z,88.7
2022-11-05T02:49:27.417Z,88.6
2022-11-05T02:50:31.112Z,88.6
2022-11-05T02:51:34.830Z,88.5
2022-11-05T02:52:37.917Z,88.5
2022-11-05T02:53:40.637Z,88.5
2022-11-05T02:54:43.164Z,88.6
2022-11-05T02:55:45.803Z,88.6
2022-11-05T02:56:49.522Z,88.6
2022-11-05T02:57:51.875Z,88.8
2022-11-05T02:58:54.979Z,89
2022-11-05T02:59:57.780Z,89.3
2022-11-05T03:01:01.254Z,89.3
2022-11-05T03:02:04.772Z,89.3
2022-11-05T03:03:09.206Z,89.3
2022-11-05T03:04:13.202Z,89.4
2022-11-05T03:05:16.166Z,89.7
2022-11-05T03:06:18.964Z,89.9
2022-11-05T03:07:22.116Z,90.1
2022-11-05T03:08:25.705Z,90.2
2022-11-05T03:09:28.705Z,90.3
2022-11-05T03:10:31.723Z,90.4
2022-11-05T03:11:35.160Z,90.5
2022-11-05T03:12:37.876Z,90.6
2022-11-05T03:13:41.318Z,90.6
2022-11-05T03:14:44.700Z,90.7
2022-11-05T03:15:48.424Z,90.6
2022-11-05T03:16:51.215Z,90.7
2022-11-05T03:17:53.402Z,90.7
2022-11-05T03:18:57.305Z,90.7
2022-11-05T03:20:00.092Z,90.7
2022-11-05T03:21:02.876Z,90.8
2022-11-05T03:22:06.316Z,90.7
2022-11-05T03:23:11.115Z,90.7
2022-11-05T03:24:15.119Z,90.6
2022-11-05T03:25:18.128Z,90.5
2022-11-05T03:26:20.936Z,90.5
2022-11-05T03:27:24.302Z,90.5
2022-11-05T03:28:27.484Z,90.5
2022-11-05T03:29:30.233Z,90.5
2022-11-05T03:30:33.700Z,90.5
2022-11-05T03:31:36.888Z,90.4
2022-11-05T03:32:40.225Z,90.4
2022-11-05T03:33:42.984Z,90.4
2022-11-05T03:34:46.409Z,90.4
2022-11-05T03:35:48.362Z,90.4
2022-11-05T03:36:51.788Z,90.3
2022-11-05T03:37:54.927Z,90.3
2022-11-05T03:38:57.453Z,90.2
2022-11-05T03:40:01.321Z,90.2
2022-11-05T03:41:04.349Z,90.1
2022-11-05T03:42:07.809Z,90
2022-11-05T03:43:12.973Z,89.9
2022-11-05T03:44:17.106Z,89.6
2022-11-05T03:45:20.466Z,89.6
2022-11-05T03:46:23.011Z,89.5
2022-11-05T03:47:25.453Z,89.6
2022-11-05T03:48:28.788Z,89.6
2022-11-05T03:49:31.811Z,89.6
2022-11-05T03:50:42.768Z,89.5
2022-11-05T03:51:45.841Z,89.5
2022-11-05T03:52:48.459Z,89.5
2022-11-05T03:53:51.247Z,89.5
2022-11-05T03:54:54.166Z,89.5
2022-11-05T03:55:57.679Z,89.3
2022-11-05T03:57:01.983Z,89.3
2022-11-05T03:58:04.711Z,89.3
2022-11-05T03:59:07.433Z,89.3
2022-11-05T04:00:09.698Z,89.4
2022-11-05T04:01:12.500Z,89.3
2022-11-05T04:02:16.099Z,89.1
2022-11-05T04:03:19.556Z,88.8
2022-11-05T04:04:22.348Z,88.3
2022-11-05T04:05:25.304Z,88.2
2022-11-05T04:06:28.673Z,87.8
2022-11-05T04:07:31.385Z,87.9
2022-11-05T04:08:34.290Z,87.9
2022-11-05T04:09:37.481Z,87.9
2022-11-05T04:10:39.998Z,87.7
2022-11-05T04:11:43.154Z,87.7
2022-11-05T04:12:46.733Z,87.6
2022-11-05T04:13:49.920Z,87.5
2022-11-05T04:14:52.929Z,87.6
2022-11-05T04:15:55.857Z,87.8
2022-11-05T04:16:58.970Z,87.8
2022-11-05T04:18:02.584Z,87.7
2022-11-05T04:19:06.313Z,87.5
2022-11-05T04:20:09.460Z,87.4
2022-11-05T04:21:12.666Z,87.4
2022-11-05T04:22:16.153Z,87.5
2022-11-05T04:23:18.682Z,87.5
2022-11-05T04:24:21.861Z,87.5
2022-11-05T04:25:24.731Z,87.6
2022-11-05T04:26:27.300Z,87.5
2022-11-05T04:27:30.106Z,87.3
2022-11-05T04:28:33.388Z,87.3
2022-11-05T04:29:36.184Z,87.2
2022-11-05T04:30:38.917Z,87.3
2022-11-05T04:31:41.721Z,87.2
2022-11-05T04:32:45.195Z,87.1
2022-11-05T04:33:48.115Z,87.1
2022-11-05T04:34:50.907Z,87
2022-11-05T04:35:53.156Z,87
2022-11-05T04:36:56.066Z,87
2022-11-05T04:37:59.568Z,86.9
2022-11-05T04:39:02.011Z,87
2022-11-05T04:40:05.085Z,87.1
2022-11-05T04:41:07.672Z,87.1
2022-11-05T04:42:10.753Z,87.1
2022-11-05T04:43:17.697Z,87.2
2022-11-05T04:44:22.854Z,87.2
2022-11-05T04:45:25.473Z,87.2
2022-11-05T04:46:28.567Z,87.1
2022-11-05T04:47:31.660Z,87.1
2022-11-05T04:48:34.822Z,87.2
2022-11-05T04:49:38.009Z,87.3
2022-11-05T04:50:40.793Z,87.3
2022-11-05T04:51:44.256Z,87.3
2022-11-05T04:52:47.437Z,87.3
2022-11-05T04:53:50.536Z,87.2
2022-11-05T04:54:53.822Z,87.2
2022-11-05T04:55:56.989Z,87.1
2022-11-05T04:57:00.119Z,87
2022-11-05T04:58:02.576Z,87.1
2022-11-05T04:59:05.099Z,87.2
2022-11-05T05:00:07.286Z,87.3
2022-11-05T05:01:10.834Z,87.2
2022-11-05T05:02:14.492Z,87.1
2022-11-05T05:03:17.476Z,87.2
2022-11-05T05:04:19.866Z,87.2
2022-11-05T05:05:23.705Z,87.2
2022-11-05T05:06:27.223Z,87.3
2022-11-05T05:07:30.044Z,87.3
2022-11-05T05:08:32.634Z,87.2
2022-11-05T05:09:36.235Z,87.2
2022-11-05T05:10:39.663Z,87.7
2022-11-05T05:11:42.095Z,88
2022-11-05T05:12:45.619Z,88.1
2022-11-05T05:13:48.414Z,88.1
2022-11-05T05:14:52.173Z,88
2022-11-05T05:15:54.627Z,87.9
2022-11-05T05:16:57.429Z,87.6
2022-11-05T05:18:00.361Z,87.4
2022-11-05T05:19:03.139Z,87.4
2022-11-05T05:20:05.957Z,87.3
2022-11-05T05:21:09.788Z,87.3
2022-11-05T05:22:12.498Z,87.4
2022-11-05T05:23:15.083Z,87.6
2022-11-05T05:24:18.112Z,87.6
2022-11-05T05:25:21.822Z,87.9
2022-11-05T05:26:24.712Z,88
2022-11-05T05:27:27.788Z,87.9
2022-11-05T05:28:30.586Z,87.8
2022-11-05T05:29:33.032Z,87.8
2022-11-05T05:30:35.992Z,87.7
2022-11-05T05:31:39.466Z,87.5
2022-11-05T05:32:42.749Z,87.4
2022-11-05T05:33:45.306Z,87.2
2022-11-05T05:34:48.199Z,86.9
2022-11-05T05:35:51.122Z,86.8
2022-11-05T05:36:54.916Z,87
2022-11-05T05:37:57.992Z,87
2022-11-05T05:39:00.729Z,86.9
2022-11-05T05:40:03.812Z,86.8
2022-11-05T05:41:07.248Z,86.8
2022-11-05T05:42:10.668Z,86.8
2022-11-05T05:43:14.409Z,86.7
2022-11-05T05:44:16.924Z,86.8
2022-11-05T05:45:20.065Z,86.7
2022-11-05T05:46:22.949Z,86.7
2022-11-05T05:47:26.692Z,86.7
2022-11-05T05:48:30.056Z,86.7
2022-11-05T05:49:33.354Z,86.7
2022-11-05T05:50:36.237Z,86.6
2022-11-05T05:51:39.436Z,86.7
2022-11-05T05:52:42.996Z,86.7
2022-11-05T05:53:45.884Z,86.7
2022-11-05T05:54:49.053Z,86.7
2022-11-05T05:55:51.799Z,86.6
2022-11-05T05:56:55.168Z,86.5
2022-11-05T05:57:59.051Z,86.5
2022-11-05T05:59:01.577Z,86.5
2022-11-05T06:00:05.295Z,86.7
2022-11-05T06:01:08.101Z,86.7
2022-11-05T06:02:17.193Z,86.7
2022-11-05T06:03:20.892Z,87.2
2022-11-05T06:04:24.726Z,87.3
2022-11-05T06:05:27.643Z,87.3
2022-11-05T06:06:30.796Z,87.3
2022-11-05T06:07:38.779Z,87.3
2022-11-05T06:08:42.482Z,87.2
2022-11-05T06:09:44.648Z,87.3
2022-11-05T06:10:47.866Z,87
2022-11-05T06:11:51.191Z,86.9
2022-11-05T06:12:54.942Z,86.7
2022-11-05T06:13:58.676Z,86.8
2022-11-05T06:15:01.768Z,86.8
2022-11-05T06:16:04.920Z,86.7
2022-11-05T06:17:07.629Z,86.7
2022-11-05T06:18:10.131Z,86.8
2022-11-05T06:19:13.235Z,86.9
2022-11-05T06:20:16.266Z,87
2022-11-05T06:21:19.478Z,87
2022-11-05T06:22:22.367Z,87.1
2022-11-05T06:23:25.169Z,87
2022-11-05T06:24:27.724Z,86.8
2022-11-05T06:25:30.789Z,86.7
2022-11-05T06:26:36.558Z,86.7
2022-11-05T06:27:39.309Z,87.1
2022-11-05T06:28:43.419Z,87.4
2022-11-05T06:29:46.297Z,87.2
2022-11-05T06:30:49.244Z,87.5
2022-11-05T06:31:51.680Z,87.8
2022-11-05T06:32:54.382Z,88
2022-11-05T06:33:57.759Z,88.1
2022-11-05T06:35:01.057Z,87.9
2022-11-05T06:36:04.147Z,87.6
2022-11-05T06:37:07.273Z,87.6
2022-11-05T06:38:10.066Z,87.4
2022-11-05T06:39:13.535Z,87.4
2022-11-05T06:40:16.448Z,87.4
2022-11-05T06:41:19.164Z,87.5
2022-11-05T06:42:22.291Z,87.6
2022-11-05T06:43:25.198Z,87.5
2022-11-05T06:44:28.006Z,87.4
2022-11-05T06:45:31.095Z,87.2
2022-11-05T06:46:33.879Z,87
2022-11-05T06:47:37.156Z,87
2022-11-05T06:48:39.935Z,86.9
2022-11-05T06:49:43.020Z,87.1
2022-11-05T06:50:45.853Z,87.2
2022-11-05T06:51:48.569Z,87.1
2022-11-05T06:52:51.580Z,87.1
2022-11-05T06:53:53.458Z,87.3
2022-11-05T06:54:56.640Z,87.3
2022-11-05T06:55:58.987Z,87.2
2022-11-05T06:57:01.580Z,87.2
2022-11-05T06:58:04.702Z,87.2
2022-11-05T06:59:07.591Z,87.2
2022-11-05T07:00:11.304Z,87.2
2022-11-05T07:01:14.489Z,87.2
2022-11-05T07:02:18.128Z,87
2022-11-05T07:03:21.259Z,87
2022-11-05T07:04:24.601Z,87.1
2022-11-05T07:05:27.391Z,87.1
2022-11-05T07:06:38.181Z,87.1
2022-11-05T07:07:41.377Z,87
2022-11-05T07:08:44.667Z,86.8
2022-11-05T07:09:48.287Z,86.8
2022-11-05T07:10:51.429Z,86.8
2022-11-05T07:11:55.179Z,86.8
2022-11-05T07:13:00.458Z,86.9
2022-11-05T07:14:11.349Z,86.9
2022-11-05T07:15:14.580Z,86.9
2022-11-05T07:16:17.109Z,86.9
2022-11-05T07:17:20.453Z,86.8
2022-11-05T07:18:23.173Z,86.8
2022-11-05T07:19:26.237Z,86.6
2022-11-05T07:20:35.781Z,86.9
2022-11-05T07:21:38.878Z,87
2022-11-05T07:22:42.144Z,86.9
2022-11-05T07:23:45.512Z,86.8
2022-11-05T07:24:48.330Z,87
2022-11-05T07:25:51.698Z,87
2022-11-05T07:26:55.088Z,86.9
2022-11-05T07:27:58.611Z,86.9
2022-11-05T07:29:02.101Z,86.8
2022-11-05T07:30:05.286Z,86.8
2022-11-05T07:31:08.506Z,86.7
2022-11-05T07:32:11.662Z,86.4
2022-11-05T07:33:16.191Z,86.2
2022-11-05T07:34:18.920Z,86
2022-11-05T07:35:21.712Z,85.9
2022-11-05T07:36:24.259Z,85.9
2022-11-05T07:37:27.067Z,85.9
2022-11-05T07:38:30.794Z,86
2022-11-05T07:39:33.536Z,86
2022-11-05T07:40:36.642Z,86
2022-11-05T07:41:39.165Z,86.1
2022-11-05T07:42:42.741Z,86.2
2022-11-05T07:43:46.503Z,86.2
2022-11-05T07:44:49.678Z,86.2
2022-11-05T07:45:52.978Z,86.1
2022-11-05T07:46:56.366Z,86.1
2022-11-05T07:47:58.812Z,85.9
2022-11-05T07:49:01.642Z,85.7
2022-11-05T07:50:05.015Z,85.7
2022-11-05T07:51:08.488Z,85.5
2022-11-05T07:52:11.566Z,85.4
2022-11-05T07:53:16.011Z,85.4
2022-11-05T07:54:19.007Z,85.5
2022-11-05T07:55:21.898Z,85.3
2022-11-05T07:56:24.980Z,85.4
2022-11-05T07:57:27.508Z,85.6
2022-11-05T07:58:30.900Z,85.5
2022-11-05T07:59:33.811Z,85.4
2022-11-05T08:00:36.916Z,85.6
2022-11-05T08:01:41.823Z,85.3
2022-11-05T08:02:46.878Z,85.3
2022-11-05T08:03:50.493Z,85.2
2022-11-05T08:04:53.943Z,85
2022-11-05T08:05:57.035Z,85.1
2022-11-05T08:07:00.373Z,85.1
2022-11-05T08:08:03.706Z,85
2022-11-05T08:09:07.080Z,84.9
2022-11-05T08:10:09.964Z,84.8
2022-11-05T08:11:13.347Z,84.8
2022-11-05T08:12:15.795Z,84.6
2022-11-05T08:13:18.587Z,84.3
2022-11-05T08:14:21.767Z,84.4
2022-11-05T08:15:24.807Z,83.9
2022-11-05T08:16:27.590Z,83.4
2022-11-05T08:17:30.487Z,83
2022-11-05T08:18:33.946Z,83
2022-11-05T08:19:36.465Z,83
2022-11-05T08:20:39.924Z,82.7
2022-11-05T08:21:42.990Z,82.4
2022-11-05T08:22:45.650Z,82.3
2022-11-05T08:23:48.525Z,82
2022-11-05T08:24:51.089Z,81.7
2022-11-05T08:25:53.802Z,81.7
2022-11-05T08:26:56.934Z,81.5
2022-11-05T08:28:00.497Z,81.2
2022-11-05T08:29:03.931Z,80.5
2022-11-05T08:30:07.193Z,80.3
2022-11-05T08:31:10.025Z,80.3
2022-11-05T08:32:12.981Z,80.1
2022-11-05T08:33:16.752Z,80.1
2022-11-05T08:34:20.220Z,79.3
2022-11-05T08:35:22.666Z,79.3
2022-11-05T08:36:25.203Z,79.3
2022-11-05T08:37:28.354Z,78.9
2022-11-05T08:38:31.798Z,78
2022-11-05T08:39:33.952Z,77.3
2022-11-05T08:40:37.254Z,77.4
2022-11-05T08:41:40.643Z,77.3
2022-11-05T08:42:44.097Z,76.5
2022-11-05T08:43:46.899Z,75.8
2022-11-05T08:44:49.326Z,75.4
2022-11-05T08:45:52.801Z,75.3
2022-11-05T08:46:56.423Z,75
2022-11-05T08:47:59.511Z,75
2022-11-05T08:49:02.882Z,74.5
2022-11-05T08:50:06.449Z,73.5
2022-11-05T08:51:09.828Z,73.5
2022-11-05T08:52:12.554Z,73.8
2022-11-05T08:53:16.777Z,73.4
2022-11-05T08:54:19.480Z,73.5
2022-11-05T08:55:22.612Z,73.4
2022-11-05T08:56:25.732Z,73
2022-11-05T08:57:28.962Z,72.1
2022-11-05T08:58:32.089Z,72.2
2022-11-05T08:59:34.814Z,72.1
2022-11-05T09:00:38.273Z,71.5
2022-11-05T09:01:42.201Z,70.9
2022-11-05T09:02:46.325Z,71.2
2022-11-05T09:03:50.415Z,71.1
2022-11-05T09:04:52.220Z,71
2022-11-05T09:05:54.759Z,70.4
2022-11-05T09:06:57.133Z,69.7
2022-11-05T09:08:02.522Z,69.8
2022-11-05T09:09:05.880Z,69.8
2022-11-05T09:10:08.116Z,69.3
2022-11-05T09:11:10.984Z,69.2
2022-11-05T09:12:14.733Z,69.2
2022-11-05T09:13:22.729Z,68.8
2022-11-05T09:14:27.044Z,69
2022-11-05T09:15:29.580Z,68.5
2022-11-05T09:16:32.665Z,68.4
2022-11-05T09:17:35.538Z,68.1
2022-11-05T09:18:39.003Z,67.7
2022-11-05T09:19:41.984Z,68.3
2022-11-05T09:20:45.297Z,67.8
2022-11-05T09:21:49.205Z,66.7
2022-11-05T09:22:52.637Z,66.4
2022-11-05T09:23:55.992Z,66.4
2022-11-05T09:24:59.141Z,67.1
2022-11-05T09:26:02.548Z,67.2
2022-11-05T09:27:06.091Z,66.7
2022-11-05T09:28:11.367Z,66.8
2022-11-05T09:29:19.308Z,66.5
2022-11-05T09:30:23.228Z,67.6
2022-11-05T09:31:26.378Z,66.5
2022-11-05T09:32:29.067Z,65.8
2022-11-05T09:33:32.532Z,66.1
2022-11-05T09:34:35.991Z,65.4
2022-11-05T09:35:39.060Z,64.4
2022-11-05T09:36:45.102Z,63.7
2022-11-05T09:37:48.302Z,63.4
2022-11-05T09:38:51.791Z,62.2
2022-11-05T09:39:54.992Z,63
2022-11-05T09:40:58.494Z,63.7
2022-11-05T09:42:01.281Z,62.4
2022-11-05T09:43:04.364Z,62.2
2022-11-05T09:44:07.729Z,62.3
2022-11-05T09:45:10.694Z,62.3
2022-11-05T09:46:14.386Z,61.1
2022-11-05T09:47:17.415Z,61.8
2022-11-05T09:48:19.671Z,61.6
2022-11-05T09:49:22.834Z,61.5
2022-11-05T09:50:26.065Z,61
2022-11-05T09:51:29.477Z,61.8
2022-11-05T09:52:33.167Z,61.6
2022-11-05T09:53:36.606Z,61.3
2022-11-05T09:54:39.676Z,61.7
2022-11-05T09:55:42.124Z,60.4
2022-11-05T09:56:45.113Z,60
2022-11-05T09:57:48.351Z,59.5
2022-11-05T09:58:51.076Z,59.6
2022-11-05T09:59:54.082Z,59.9
2022-11-05T10:00:57.034Z,58.3
2022-11-05T10:02:01.298Z,59.2
2022-11-05T10:03:05.276Z,60
2022-11-05T10:04:08.407Z,58.7
2022-11-05T10:05:12.408Z,59.3
2022-11-05T10:06:16.174Z,59.3
2022-11-05T10:07:18.970Z,59
2022-11-05T10:08:22.081Z,59.5
2022-11-05T10:09:25.250Z,58
2022-11-05T10:10:28.516Z,58
2022-11-05T10:11:30.955Z,60.4
2022-11-05T10:12:33.658Z,62.1
2022-11-05T10:13:36.439Z,62.5
2022-11-05T10:14:39.794Z,57.8
2022-11-05T10:15:42.959Z,57.3
2022-11-05T10:16:46.323Z,58.3
2022-11-05T10:17:49.361Z,60.1
2022-11-05T10:18:52.827Z,56.4
2022-11-05T10:19:56.170Z,56.7
2022-11-05T10:20:58.926Z,60.3
2022-11-05T10:22:08.537Z,56.8
2022-11-05T10:23:13.390Z,57.3
2022-11-05T10:24:16.698Z,58.6
2022-11-05T10:25:20.171Z,56.3
2022-11-05T10:26:23.541Z,59.4
2022-11-05T10:27:26.614Z,57.7
2022-11-05T10:28:29.958Z,56.3
2022-11-05T10:29:33.424Z,56.6
2022-11-05T10:30:36.208Z,55.9
2022-11-05T10:31:39.676Z,55.2
2022-11-05T10:32:42.204Z,55.1
2022-11-05T10:33:45.585Z,54.4
2022-11-05T10:34:48.450Z,54.9
2022-11-05T10:35:51.674Z,54.9
2022-11-05T10:36:55.121Z,54.5
2022-11-05T10:37:58.006Z,53.3
2022-11-05T10:39:01.001Z,53.4
2022-11-05T10:40:04.464Z,54.2
2022-11-05T10:41:08.255Z,52.4
2022-11-05T10:42:11.516Z,53.8
2022-11-05T10:43:15.559Z,53.5
2022-11-05T10:44:20.471Z,53.6
2022-11-05T10:45:23.818Z,54.2
2022-11-05T10:46:26.891Z,55.3
2022-11-05T10:47:29.982Z,53.7
2022-11-05T10:48:33.051Z,53
2022-11-05T10:49:40.105Z,52.8
2022-11-05T10:50:43.124Z,52
2022-11-05T10:51:46.316Z,53.1
2022-11-05T10:52:49.726Z,53.6
2022-11-05T10:54:02.337Z,51.8
2022-11-05T10:55:05.669Z,52.4
2022-11-05T10:56:08.125Z,52.7
2022-11-05T10:57:11.841Z,51.3
2022-11-05T10:58:14.552Z,52.4
2022-11-05T10:59:17.958Z,52.5
2022-11-05T11:00:21.352Z,52.8
2022-11-05T11:01:24.543Z,52.9
2022-11-05T11:02:28.204Z,51.6
2022-11-05T11:03:31.886Z,50.2
2022-11-05T11:04:39.200Z,49.8
2022-11-05T11:05:43.465Z,50.6
2022-11-05T11:06:46.289Z,50.9
2022-11-05T11:07:49.444Z,50.6
2022-11-05T11:08:52.584Z,50
2022-11-05T11:09:55.471Z,50.1
2022-11-05T11:10:58.935Z,50.6
2022-11-05T11:12:01.957Z,51.4
2022-11-05T11:13:05.204Z,51.4
2022-11-05T11:14:07.914Z,51.5
2022-11-05T11:15:10.739Z,50.8
2022-11-05T11:16:13.906Z,49.5
2022-11-05T11:17:16.983Z,49.6
2022-11-05T11:18:19.975Z,49.5
2022-11-05T11:19:23.346Z,50.2
2022-11-05T11:20:26.464Z,50.6
2022-11-05T11:21:29.872Z,50.1
2022-11-05T11:22:32.975Z,50.6
2022-11-05T11:23:35.530Z,50.9
2022-11-05T11:24:38.436Z,50.3
2022-11-05T11:25:41.542Z,51.4
2022-11-05T11:26:43.990Z,52.2
2022-11-05T11:27:47.009Z,53
2022-11-05T11:28:50.466Z,51.3
2022-11-05T11:29:53.051Z,51.4
2022-11-05T11:30:56.161Z,50.9
2022-11-05T11:31:59.537Z,51.7
2022-11-05T11:33:02.418Z,53.5
2022-11-05T11:34:04.855Z,50.3
2022-11-05T11:35:07.941Z,52
2022-11-05T11:36:11.055Z,51.8
2022-11-05T11:37:20.776Z,49.7
2022-11-05T11:38:23.516Z,49.8
2022-11-05T11:39:26.864Z,50.2
2022-11-05T11:40:29.393Z,51.5
2022-11-05T11:41:33.087Z,50
2022-11-05T11:42:36.156Z,50.1
2022-11-05T11:43:39.808Z,51.3
2022-11-05T11:44:43.397Z,51.1
2022-11-05T11:45:48.064Z,51
2022-11-05T11:46:51.058Z,51.1
2022-11-05T11:47:53.768Z,52
2022-11-05T11:48:56.926Z,50.8
2022-11-05T11:49:59.375Z,50.5
2022-11-05T11:51:02.110Z,49.7
2022-11-05T11:52:04.826Z,49.8
2022-11-05T11:53:07.569Z,49.8
2022-11-05T11:54:10.757Z,50.3
2022-11-05T11:55:13.989Z,50.3
2022-11-05T11:56:18.175Z,49.9
2022-11-05T11:57:22.280Z,50.5
2022-11-05T11:58:25.076Z,49.5
2022-11-05T12:00:10.508Z,50.2
2022-11-05T12:01:14.125Z,50.5
2022-11-05T12:02:18.207Z,50
2022-11-05T12:03:22.834Z,50.4
2022-11-05T12:04:26.682Z,49.7
2022-11-05T12:05:30.098Z,48.6
2022-11-05T12:06:33.386Z,48.4
2022-11-05T12:07:35.824Z,48.5
2022-11-05T12:08:56.511Z,49.5
2022-11-05T12:10:09.087Z,49.3
2022-11-05T12:11:11.313Z,50.3
2022-11-05T12:12:14.766Z,50.7
2022-11-05T12:13:18.132Z,50.2
2022-11-05T12:14:21.409Z,50.1
2022-11-05T12:15:24.455Z,50.4
2022-11-05T12:16:27.844Z,50.8
2022-11-05T12:17:30.208Z,51
2022-11-05T12:18:32.367Z,51.2
2022-11-05T12:19:35.110Z,51.3
2022-11-05T12:20:37.615Z,51.2
2022-11-05T12:21:54.620Z,50.6
2022-11-05T12:22:57.609Z,50.6
2022-11-05T12:24:00.969Z,50.6
2022-11-05T12:25:04.037Z,50.8
2022-11-05T12:26:06.213Z,49.8
2022-11-05T12:27:09.012Z,50.3
2022-11-05T12:28:12.380Z,50.3
2022-11-05T12:29:20.900Z,50.6
2022-11-05T12:30:24.269Z,51.3
2022-11-05T12:31:26.737Z,52
2022-11-05T12:32:30.678Z,51.5
2022-11-05T12:33:33.411Z,51.7
2022-11-05T12:34:36.135Z,52.1
2022-11-05T12:35:53.413Z,52.5
2022-11-05T12:37:01.576Z,52.6
2022-11-05T12:38:04.674Z,51.9
2022-11-05T12:39:08.273Z,52.7
2022-11-05T12:40:10.568Z,53.1
2022-11-05T12:41:13.655Z,53.4
2022-11-05T12:42:16.544Z,54
2022-11-05T12:43:20.253Z,53.9
2022-11-05T12:44:23.433Z,53.8
2022-11-05T12:45:26.522Z,54.3
2022-11-05T12:46:29.643Z,53.5
2022-11-05T12:47:33.367Z,53.7
2022-11-05T12:48:38.830Z,53.7
2022-11-05T12:49:42.098Z,53.7
2022-11-05T12:50:44.824Z,54.1
2022-11-05T12:51:47.559Z,53.6
2022-11-05T12:52:51.007Z,54.2
2022-11-05T12:53:53.842Z,54.7
2022-11-05T12:54:57.219Z,54.6
2022-11-05T12:56:00.966Z,55.2
2022-11-05T12:57:04.340Z,55.1
2022-11-05T12:58:07.147Z,55.4
2022-11-05T12:59:10.040Z,55.2
2022-11-05T13:00:13.579Z,55.1
2022-11-05T13:01:16.359Z,55.2
2022-11-05T13:02:20.589Z,55
2022-11-05T13:03:24.188Z,55.3
2022-11-05T13:04:27.563Z,55.1
2022-11-05T13:05:30.359Z,55
2022-11-05T13:06:33.495Z,55.1
2022-11-05T13:07:36.296Z,54.4
2022-11-05T13:08:39.412Z,54.8
2022-11-05T13:09:42.208Z,54.9
2022-11-05T13:10:45.568Z,55.2
2022-11-05T13:11:48.975Z,54.8
2022-11-05T13:12:52.120Z,55.2
2022-11-05T13:13:54.917Z,55.1
2022-11-05T13:14:57.713Z,54.8
2022-11-05T13:16:01.187Z,54.6
2022-11-05T13:17:04.529Z,54.7
2022-11-05T13:18:07.149Z,54.7
2022-11-05T13:19:10.894Z,55
2022-11-05T13:20:19.035Z,55.8
2022-11-05T13:21:22.517Z,56
2022-11-05T13:22:25.328Z,56.1
2022-11-05T13:23:27.840Z,57
2022-11-05T13:24:31.405Z,56.7
2022-11-05T13:25:34.502Z,56.6
2022-11-05T13:26:37.518Z,56.8
2022-11-05T13:27:40.413Z,57.3
2022-11-05T13:28:44.047Z,56.6
2022-11-05T13:29:47.130Z,57
2022-11-05T13:30:49.736Z,57.5
2022-11-05T13:31:53.219Z,57.4
2022-11-05T13:32:56.210Z,57.6
2022-11-05T13:33:58.766Z,57.5
2022-11-05T13:35:02.806Z,58.4
2022-11-05T13:36:05.874Z,58.5
2022-11-05T13:37:08.682Z,58.9
2022-11-05T13:38:11.646Z,59
2022-11-05T13:39:15.123Z,59.4
2022-11-05T13:40:18.803Z,60.1
2022-11-05T13:41:21.629Z,59.8
2022-11-05T13:42:24.522Z,59.8
2022-11-05T13:43:27.882Z,60.1
2022-11-05T13:44:30.914Z,60.1
2022-11-05T13:45:34.544Z,60.1
2022-11-05T13:46:37.899Z,59.5
2022-11-05T13:47:41.090Z,59.5
2022-11-05T13:48:44.438Z,59.6
2022-11-05T13:49:47.007Z,59.5
2022-11-05T13:50:50.747Z,59.8
2022-11-05T13:51:54.103Z,60
2022-11-05T13:52:56.703Z,60.1
2022-11-05T13:53:59.722Z,60.1
2022-11-05T13:55:03.884Z,60.2
2022-11-05T13:56:07.401Z,60.1
2022-11-05T13:57:10.467Z,60.4
2022-11-05T13:58:13.108Z,60.7
2022-11-05T13:59:16.278Z,60.6
2022-11-05T14:00:20.303Z,60.6
2022-11-05T14:01:24.011Z,60.9
2022-11-05T14:02:28.455Z,61
2022-11-05T14:03:31.963Z,61.2
2022-11-05T14:04:34.293Z,61.3
2022-11-05T14:05:38.116Z,61.3
2022-11-05T14:06:42.223Z,61.4
2022-11-05T14:07:45.650Z,61.4
2022-11-05T14:08:48.926Z,61.3
2022-11-05T14:09:51.635Z,61.5
2022-11-05T14:10:54.796Z,61.8